createdAt,value
2023-01-03T00:01:25.060Z,11.40
2023-01-03T00:03:58.882Z,11.30
2023-01-03T00:06:38.022Z,11.30
2023-01-03T00:09:12.604Z,11.20
2023-01-03T00:12:08.029Z,11.20
2023-01-03T00:14:42.631Z,11.10
2023-01-03T00:17:15.550Z,11.10
2023-01-03T00:19:48.864Z,11.10
2023-01-03T00:22:21.831Z,11.00
2023-01-03T00:24:54.379Z,11.00
2023-01-03T00:27:27.607Z,11.00
2023-01-03T00:30:00.693Z,11.00
2023-01-03T00:32:33.761Z,11.00
2023-01-03T00:35:06.873Z,11.00
2023-01-03T00:37:39.774Z,11.00
2023-01-03T00:40:12.375Z,10.90
2023-01-03T00:43:03.903Z,10.90
2023-01-03T00:45:36.461Z,10.90
2023-01-03T00:48:09.231Z,10.90
2023-01-03T00:50:41.675Z,10.80
2023-01-03T00:53:14.453Z,10.70
2023-01-03T00:55:47.005Z,10.70
2023-01-03T00:58:19.756Z,10.60
2023-01-03T01:00:52.210Z,10.60
2023-01-03T01:03:25.106Z,10.60
2023-01-03T01:05:57.861Z,10.60
2023-01-03T01:08:30.617Z,10.60
2023-01-03T01:11:04.077Z,10.50
2023-01-03T01:13:37.643Z,10.50
2023-01-03T01:16:14.136Z,10.50
2023-01-03T01:18:49.022Z,10.40
2023-01-03T01:21:28.214Z,10.40
2023-01-03T01:24:01.026Z,10.40
2023-01-03T01:26:33.507Z,10.40
2023-01-03T01:29:06.494Z,10.20
2023-01-03T01:31:39.919Z,10.20
2023-01-03T01:34:13.504Z,10.20
2023-01-03T01:36:47.681Z,10.10
2023-01-03T01:39:23.060Z,9.90
2023-01-03T01:42:20.420Z,9.90
2023-01-03T01:44:55.359Z,9.70
2023-01-03T01:47:30.620Z,9.60
2023-01-03T01:50:15.329Z,9.60
2023-01-03T01:53:02.160Z,9.50
2023-01-03T01:55:51.952Z,9.40
2023-01-03T01:58:27.877Z,9.40
2023-01-03T02:01:00.853Z,9.40
2023-01-03T02:03:33.473Z,9.30
2023-01-03T02:06:09.555Z,9.30
2023-01-03T02:08:42.101Z,9.30
2023-01-03T02:11:23.696Z,9.30
2023-01-03T02:14:19.671Z,9.30
2023-01-03T02:16:52.375Z,9.30
2023-01-03T02:19:51.654Z,9.30
2023-01-03T02:22:52.304Z,9.30
2023-01-03T02:25:39.796Z,9.30
2023-01-03T02:28:33.596Z,9.40
2023-01-03T02:31:26.043Z,9.40
2023-01-03T02:34:16.034Z,9.40
2023-01-03T02:37:27.436Z,9.30
2023-01-03T02:40:04.223Z,9.20
2023-01-03T02:42:58.875Z,9.10
2023-01-03T02:45:49.352Z,9.00
2023-01-03T02:48:52.927Z,8.80
2023-01-03T02:51:33.455Z,8.70
2023-01-03T02:54:09.808Z,8.60
2023-01-03T02:56:59.078Z,8.50
2023-01-03T02:59:45.671Z,8.50
2023-01-03T03:02:21.691Z,8.40
2023-01-03T03:04:57.069Z,8.40
2023-01-03T03:07:35.112Z,8.30
2023-01-03T03:10:28.216Z,8.30
2023-01-03T03:13:15.120Z,8.30
2023-01-03T03:16:17.406Z,8.30
2023-01-03T03:18:59.272Z,8.30
2023-01-03T03:21:54.010Z,8.30
2023-01-03T03:24:49.153Z,8.20
2023-01-03T03:27:43.604Z,8.20
2023-01-03T03:30:20.036Z,8.20
2023-01-03T03:32:56.159Z,8.20
2023-01-03T03:35:31.208Z,8.20
2023-01-03T03:38:07.168Z,8.30
2023-01-03T03:41:04.913Z,8.40
2023-01-03T03:44:03.161Z,8.40
2023-01-03T03:46:50.561Z,8.50
2023-01-03T03:49:40.067Z,8.50
2023-01-03T03:52:19.535Z,8.50
2023-01-03T03:55:00.243Z,8.60
2023-01-03T03:57:37.600Z,8.50
2023-01-03T04:00:17.798Z,8.60
2023-01-03T04:02:53.927Z,8.60
2023-01-03T04:05:32.082Z,8.60
2023-01-03T04:08:05.181Z,8.60
2023-01-03T04:10:38.457Z,8.60
2023-01-03T04:13:11.656Z,8.60
2023-01-03T04:15:44.157Z,8.60
2023-01-03T04:18:16.932Z,8.60
2023-01-03T04:20:49.442Z,8.50
2023-01-03T04:23:22.445Z,8.50
2023-01-03T04:25:55.059Z,8.50
2023-01-03T04:28:27.803Z,8.40
2023-01-03T04:31:00.316Z,8.30
2023-01-03T04:33:33.402Z,8.30
2023-01-03T04:36:06.224Z,8.20
2023-01-03T04:38:39.250Z,8.10
2023-01-03T04:41:11.852Z,8.20
2023-01-03T04:44:03.164Z,8.10
2023-01-03T04:46:38.202Z,8.20
2023-01-03T04:49:11.495Z,8.20
2023-01-03T04:51:44.000Z,8.30
2023-01-03T04:54:16.718Z,8.30
2023-01-03T04:56:49.198Z,8.30
2023-01-03T04:59:21.966Z,8.30
2023-01-03T05:01:54.517Z,8.30
2023-01-03T05:04:27.566Z,8.30
2023-01-03T05:07:00.205Z,8.30
2023-01-03T05:09:32.994Z,8.30
2023-01-03T05:12:05.787Z,8.20
2023-01-03T05:14:41.571Z,8.20
2023-01-03T05:17:14.169Z,8.10
2023-01-03T05:20:06.577Z,7.90
2023-01-03T05:22:57.714Z,7.80
2023-01-03T05:25:48.867Z,7.80
2023-01-03T05:28:23.751Z,7.70
2023-01-03T05:30:58.897Z,7.60
2023-01-03T05:33:31.521Z,7.60
2023-01-03T05:36:04.599Z,7.50
2023-01-03T05:38:38.382Z,7.60
2023-01-03T05:41:13.648Z,7.50
2023-01-03T05:43:46.124Z,7.50
2023-01-03T05:46:18.969Z,7.50
2023-01-03T05:48:51.511Z,7.50
2023-01-03T05:51:24.265Z,7.50
2023-01-03T05:53:56.825Z,7.50
2023-01-03T05:56:31.676Z,7.50
2023-01-03T05:59:04.321Z,7.50
2023-01-03T06:01:37.189Z,7.50
2023-01-03T06:04:09.784Z,7.50
2023-01-03T06:06:42.549Z,7.40
2023-01-03T06:09:15.071Z,7.40
2023-01-03T06:11:48.009Z,7.40
2023-01-03T06:14:20.541Z,7.30
2023-01-03T06:17:11.608Z,7.30
2023-01-03T06:19:44.201Z,7.20
2023-01-03T06:22:16.997Z,7.20
2023-01-03T06:24:49.526Z,7.10
2023-01-03T06:27:22.366Z,7.10
2023-01-03T06:29:54.811Z,7.10
2023-01-03T06:32:27.643Z,7.00
2023-01-03T06:35:00.173Z,7.00
2023-01-03T06:37:32.976Z,7.00
2023-01-03T06:40:06.647Z,7.00
2023-01-03T06:42:39.801Z,6.90
2023-01-03T06:45:32.882Z,7.00
2023-01-03T06:48:25.238Z,6.90
2023-01-03T06:51:16.422Z,6.90
2023-01-03T06:53:49.366Z,6.90
2023-01-03T06:56:23.236Z,6.80
2023-01-03T06:58:55.971Z,6.80
2023-01-03T07:01:28.680Z,6.80
2023-01-03T07:04:02.645Z,6.70
2023-01-03T07:06:35.166Z,6.70
2023-01-03T07:09:09.055Z,6.70
2023-01-03T07:11:42.129Z,6.60
2023-01-03T07:14:15.195Z,6.70
2023-01-03T07:16:49.457Z,6.70
2023-01-03T07:19:22.226Z,6.70
2023-01-03T07:21:54.755Z,6.60
2023-01-03T07:24:27.488Z,6.60
2023-01-03T07:26:59.988Z,6.60
2023-01-03T07:29:33.023Z,6.60
2023-01-03T07:32:05.694Z,6.60
2023-01-03T07:34:38.459Z,6.50
2023-01-03T07:37:11.022Z,6.50
2023-01-03T07:39:43.844Z,6.50
2023-01-03T07:42:34.733Z,6.50
2023-01-03T07:45:08.391Z,6.50
2023-01-03T07:47:45.337Z,6.40
2023-01-03T07:50:18.125Z,6.40
2023-01-03T07:52:50.828Z,6.40
2023-01-03T07:55:23.811Z,6.40
2023-01-03T07:57:56.606Z,6.40
2023-01-03T08:00:29.674Z,6.40
2023-01-03T08:03:02.427Z,6.50
2023-01-03T08:05:35.827Z,6.50
2023-01-03T08:08:09.142Z,6.60
2023-01-03T08:11:00.317Z,6.60
2023-01-03T08:13:32.780Z,6.60
2023-01-03T08:16:06.124Z,6.70
2023-01-03T08:18:40.388Z,6.80
2023-01-03T08:21:15.235Z,6.80
2023-01-03T08:23:49.023Z,6.80
2023-01-03T08:26:21.881Z,6.70
2023-01-03T08:28:54.414Z,6.70
2023-01-03T08:31:31.150Z,6.70
2023-01-03T08:34:12.009Z,6.70
2023-01-03T08:36:54.753Z,6.70
2023-01-03T08:39:33.499Z,6.80
2023-01-03T08:42:08.729Z,6.80
2023-01-03T08:44:47.103Z,6.80
2023-01-03T08:47:20.495Z,6.80
2023-01-03T08:49:53.101Z,6.80
2023-01-03T08:52:34.504Z,6.90
2023-01-03T08:55:08.341Z,6.90
2023-01-03T08:57:41.134Z,6.90
2023-01-03T09:00:14.730Z,6.90
2023-01-03T09:02:47.657Z,6.90
2023-01-03T09:05:20.926Z,7.00
2023-01-03T09:07:55.043Z,7.00
2023-01-03T09:10:27.506Z,7.00
2023-01-03T09:13:02.566Z,7.00
2023-01-03T09:15:35.016Z,7.10
2023-01-03T09:18:07.691Z,7.10
2023-01-03T09:20:40.007Z,7.20
2023-01-03T09:23:12.669Z,7.20
2023-01-03T09:25:46.960Z,7.20
2023-01-03T09:28:19.551Z,7.20
2023-01-03T09:30:52.277Z,7.30
2023-01-03T09:33:25.188Z,7.40
2023-01-03T09:35:57.583Z,7.40
2023-01-03T09:38:30.259Z,7.40
2023-01-03T09:41:09.079Z,7.40
2023-01-03T09:43:46.030Z,7.40
2023-01-03T09:46:21.658Z,7.30
2023-01-03T09:48:55.802Z,7.40
2023-01-03T09:51:48.904Z,7.40
2023-01-03T09:54:52.950Z,7.40
2023-01-03T09:57:45.751Z,7.50
2023-01-03T10:00:55.354Z,7.50
2023-01-03T10:03:56.553Z,7.60
2023-01-03T10:06:45.436Z,7.60
2023-01-03T10:09:29.970Z,7.60
2023-01-03T10:12:30.828Z,7.70
2023-01-03T10:15:21.856Z,7.60
2023-01-03T10:17:57.506Z,7.60
2023-01-03T10:20:46.972Z,7.50
2023-01-03T10:23:20.082Z,7.50
2023-01-03T10:25:52.511Z,7.60
2023-01-03T10:28:36.377Z,7.70
2023-01-03T10:31:32.471Z,7.70
2023-01-03T10:34:07.032Z,7.70
2023-01-03T10:36:39.363Z,7.70
2023-01-03T10:39:12.243Z,7.70
2023-01-03T10:41:47.158Z,7.80
2023-01-03T10:44:26.645Z,7.90
2023-01-03T10:47:09.585Z,7.80
2023-01-03T10:49:46.884Z,7.70
2023-01-03T10:52:23.893Z,7.60
2023-01-03T10:55:00.697Z,7.70
2023-01-03T10:57:56.726Z,7.80
2023-01-03T11:00:32.493Z,7.90
2023-01-03T11:03:16.455Z,7.90
2023-01-03T11:06:01.234Z,8.00
2023-01-03T11:08:44.529Z,8.10
2023-01-03T11:11:28.365Z,8.10
2023-01-03T11:14:24.380Z,8.00
2023-01-03T11:17:02.510Z,7.90
2023-01-03T11:19:35.338Z,7.90
2023-01-03T11:22:37.585Z,7.70
2023-01-03T11:25:42.236Z,7.60
2023-01-03T11:28:32.431Z,7.60
2023-01-03T11:31:24.575Z,7.60
2023-01-03T11:34:16.405Z,7.60
2023-01-03T11:36:56.702Z,7.70
2023-01-03T11:39:52.574Z,7.90
2023-01-03T11:42:30.009Z,8.10
2023-01-03T11:45:22.401Z,8.30
2023-01-03T11:48:19.815Z,8.50
2023-01-03T11:51:03.459Z,8.30
2023-01-03T11:53:47.930Z,8.20
2023-01-03T11:56:30.866Z,7.90
2023-01-03T11:59:37.300Z,7.70
2023-01-03T12:02:31.323Z,7.60
2023-01-03T12:05:22.277Z,7.60
2023-01-03T12:08:04.026Z,7.70
2023-01-03T12:11:00.564Z,7.60
2023-01-03T12:13:51.567Z,7.70
2023-01-03T12:16:44.863Z,7.80
2023-01-03T12:19:37.822Z,7.90
2023-01-03T12:22:44.621Z,7.90
2023-01-03T12:25:37.455Z,8.00
2023-01-03T12:28:10.307Z,8.00
2023-01-03T12:30:59.612Z,8.00
2023-01-03T12:33:34.890Z,8.10
2023-01-03T12:36:35.433Z,8.10
2023-01-03T12:39:41.835Z,8.20
2023-01-03T12:42:27.250Z,8.20
2023-01-03T12:45:19.361Z,8.20
2023-01-03T12:48:29.326Z,8.00
2023-01-03T12:51:01.874Z,7.80
2023-01-03T12:53:40.309Z,7.60
2023-01-03T12:56:44.621Z,7.50
2023-01-03T12:59:51.449Z,7.40
2023-01-03T13:02:43.043Z,7.20
2023-01-03T13:05:38.223Z,7.10
2023-01-03T13:08:29.161Z,7.10
2023-01-03T13:11:06.862Z,7.10
2023-01-03T13:13:57.316Z,7.10
2023-01-03T13:16:34.112Z,7.10
2023-01-03T13:19:21.498Z,7.00
2023-01-03T13:21:54.145Z,7.10
2023-01-03T13:24:46.682Z,7.10
2023-01-03T13:27:25.146Z,7.10
2023-01-03T13:30:01.870Z,7.10
2023-01-03T13:33:10.831Z,7.20
2023-01-03T13:35:43.290Z,7.20
2023-01-03T13:38:36.323Z,7.10
2023-01-03T13:41:37.974Z,7.10
2023-01-03T13:44:23.325Z,7.10
2023-01-03T13:46:56.159Z,7.10
2023-01-03T13:49:29.318Z,7.10
2023-01-03T13:52:05.449Z,7.10
2023-01-03T13:54:58.434Z,7.10
2023-01-03T13:57:37.133Z,7.20
2023-01-03T14:00:19.594Z,7.20
2023-01-03T14:02:57.385Z,7.10
2023-01-03T14:05:42.931Z,7.10
2023-01-03T14:08:36.418Z,7.10
2023-01-03T14:11:48.340Z,7.10
2023-01-03T14:14:24.785Z,7.20
2023-01-03T14:16:58.825Z,7.20
2023-01-03T14:19:34.349Z,7.20
2023-01-03T14:22:28.173Z,7.20
2023-01-03T14:25:00.870Z,7.20
2023-01-03T14:27:40.999Z,7.10
2023-01-03T14:30:23.671Z,7.10
2023-01-03T14:33:04.148Z,7.10
2023-01-03T14:35:37.677Z,7.10
2023-01-03T14:38:35.987Z,7.10
2023-01-03T14:41:28.043Z,7.10
2023-01-03T14:44:09.175Z,7.10
2023-01-03T14:46:53.479Z,7.10
2023-01-03T14:49:32.772Z,7.00
2023-01-03T14:52:26.494Z,7.00
2023-01-03T14:55:15.607Z,7.00
2023-01-03T14:57:49.607Z,7.00
2023-01-03T15:00:32.161Z,7.00
2023-01-03T15:03:12.613Z,7.00
2023-01-03T15:05:45.345Z,6.90
2023-01-03T15:08:28.273Z,7.00
2023-01-03T15:11:08.303Z,6.90
2023-01-03T15:13:54.097Z,6.90
2023-01-03T15:16:40.417Z,6.90
2023-01-03T15:19:20.244Z,6.90
2023-01-03T15:22:14.613Z,6.90
2023-01-03T15:24:50.489Z,6.90
2023-01-03T15:27:41.599Z,6.90
2023-01-03T15:30:17.730Z,6.90
2023-01-03T15:32:55.969Z,6.90
2023-01-03T15:35:39.592Z,6.90
2023-01-03T15:38:31.943Z,6.90
2023-01-03T15:41:13.548Z,6.90
2023-01-03T15:43:47.646Z,6.90
2023-01-03T15:46:20.289Z,6.90
2023-01-03T15:48:56.930Z,6.90
2023-01-03T15:51:29.348Z,6.90
2023-01-03T15:54:03.013Z,6.90
2023-01-03T15:56:36.197Z,6.90
2023-01-03T15:59:09.525Z,6.90
2023-01-03T16:01:44.842Z,6.90
2023-01-03T16:04:19.780Z,6.90
2023-01-03T16:06:53.386Z,6.90
2023-01-03T16:09:26.180Z,6.90
2023-01-03T16:11:58.891Z,6.90
2023-01-03T16:14:38.411Z,6.90
2023-01-03T16:17:24.277Z,6.90
2023-01-03T16:19:59.745Z,6.90
2023-01-03T16:22:35.341Z,6.90
2023-01-03T16:25:15.481Z,6.90
2023-01-03T16:27:47.961Z,6.90
2023-01-03T16:30:20.888Z,6.90
2023-01-03T16:32:53.438Z,6.80
2023-01-03T16:35:26.262Z,6.80
2023-01-03T16:37:58.746Z,6.80
2023-01-03T16:40:31.537Z,6.70
2023-01-03T16:43:04.006Z,6.70
2023-01-03T16:45:45.279Z,6.70
2023-01-03T16:48:24.416Z,6.70
2023-01-03T16:51:00.001Z,6.70
2023-01-03T16:53:37.405Z,6.70
2023-01-03T16:56:12.303Z,6.60
2023-01-03T16:58:44.853Z,6.60
2023-01-03T17:01:17.766Z,6.60
2023-01-03T17:03:50.429Z,6.60
2023-01-03T17:06:33.451Z,6.60
2023-01-03T17:09:19.139Z,6.50
2023-01-03T17:11:52.256Z,6.60
2023-01-03T17:14:25.024Z,6.60
2023-01-03T17:17:00.420Z,6.60
2023-01-03T17:22:27.351Z,6.50
2023-01-03T17:24:59.955Z,6.50
2023-01-03T17:27:33.960Z,6.50
2023-01-03T17:30:07.681Z,6.40
2023-01-03T17:32:40.461Z,6.40
2023-01-03T17:35:14.672Z,6.30
2023-01-03T17:40:44.481Z,6.40
2023-01-03T17:43:24.890Z,6.30
2023-01-03T17:46:23.118Z,6.30
2023-01-03T17:49:15.295Z,6.20
2023-01-03T17:51:47.921Z,6.20
2023-01-03T17:54:25.896Z,6.20
2023-01-03T17:56:59.540Z,6.10
2023-01-03T17:59:32.843Z,6.10
2023-01-03T18:02:21.354Z,6.10
2023-01-03T18:07:46.726Z,6.00
2023-01-03T18:10:41.726Z,6.00
2023-01-03T18:13:26.136Z,6.00
2023-01-03T18:15:59.217Z,6.00
2023-01-03T18:18:32.731Z,6.00
2023-01-03T18:21:12.103Z,5.90
2023-01-03T18:23:45.406Z,5.90
2023-01-03T18:26:18.336Z,5.90
2023-01-03T18:28:50.871Z,5.90
2023-01-03T18:31:23.643Z,5.90
2023-01-03T18:33:57.492Z,5.90
2023-01-03T18:36:41.742Z,5.90
2023-01-03T18:39:29.319Z,5.90
2023-01-03T18:42:20.810Z,5.90
2023-01-03T18:44:53.279Z,5.90
2023-01-03T18:47:26.177Z,5.80
2023-01-03T18:49:58.656Z,5.80
2023-01-03T18:52:41.068Z,5.80
2023-01-03T18:55:30.618Z,5.70
2023-01-03T18:58:29.603Z,5.70
2023-01-03T19:01:02.973Z,5.70
2023-01-03T19:03:39.381Z,5.60
2023-01-03T19:06:20.911Z,5.70
2023-01-03T19:08:53.764Z,5.60
2023-01-03T19:11:37.691Z,5.60
2023-01-03T19:14:12.668Z,5.60
2023-01-03T19:16:45.980Z,5.60
2023-01-03T19:19:19.003Z,5.60
2023-01-03T19:21:51.491Z,5.60
2023-01-03T19:24:42.285Z,5.60
2023-01-03T19:27:23.672Z,5.50
2023-01-03T19:29:56.748Z,5.50
2023-01-03T19:32:30.610Z,5.50
2023-01-03T19:35:05.954Z,5.40
2023-01-03T19:37:38.411Z,5.40
2023-01-03T19:40:16.070Z,5.30
2023-01-03T19:42:55.223Z,5.30
2023-01-03T19:45:37.183Z,5.30
2023-01-03T19:48:19.797Z,5.20
2023-01-03T19:50:53.129Z,5.30
2023-01-03T19:53:25.755Z,5.20
2023-01-03T19:55:59.070Z,5.30
2023-01-03T19:58:40.022Z,5.30
2023-01-03T20:01:17.477Z,5.30
2023-01-03T20:03:50.726Z,5.30
2023-01-03T20:06:23.891Z,5.30
2023-01-03T20:08:56.427Z,5.20
2023-01-03T20:11:31.156Z,5.20
2023-01-03T20:14:15.097Z,5.10
2023-01-03T20:16:47.924Z,5.00
2023-01-03T20:19:21.264Z,5.00
2023-01-03T20:21:54.046Z,4.90
2023-01-03T20:24:33.683Z,5.00
2023-01-03T20:27:09.897Z,4.90
2023-01-03T20:29:42.829Z,4.90
2023-01-03T20:32:15.691Z,4.80
2023-01-03T20:34:48.282Z,4.80
2023-01-03T20:37:21.593Z,4.80
2023-01-03T20:39:54.120Z,4.80
2023-01-03T20:42:26.913Z,4.80
2023-01-03T20:44:59.355Z,4.70
2023-01-03T20:47:32.113Z,4.70
2023-01-03T20:50:17.212Z,4.70
2023-01-03T20:52:50.589Z,4.60
2023-01-03T20:55:25.250Z,4.60
2023-01-03T20:57:58.065Z,4.50
2023-01-03T21:00:32.668Z,4.40
2023-01-03T21:03:05.622Z,4.30
2023-01-03T21:05:38.934Z,4.30
2023-01-03T21:08:35.008Z,4.30
2023-01-03T21:11:07.543Z,4.30
2023-01-03T21:13:40.606Z,4.30
2023-01-03T21:16:31.274Z,4.30
2023-01-03T21:19:21.679Z,4.30
2023-01-03T21:21:55.563Z,4.20
2023-01-03T21:24:29.532Z,4.20
2023-01-03T21:27:02.200Z,4.10
2023-01-03T21:29:34.982Z,4.00
2023-01-03T21:32:10.093Z,3.90
2023-01-03T21:34:42.993Z,3.90
2023-01-03T21:37:15.474Z,3.90
2023-01-03T21:39:48.338Z,3.80
2023-01-03T21:42:39.353Z,3.80
2023-01-03T21:45:14.098Z,3.70
2023-01-03T21:47:47.808Z,3.60
2023-01-03T21:50:21.880Z,3.60
2023-01-03T21:52:56.631Z,3.40
2023-01-03T21:55:30.965Z,3.40
2023-01-03T21:58:03.443Z,3.40
2023-01-03T22:00:37.434Z,3.30
2023-01-03T22:03:33.578Z,3.30
2023-01-03T22:06:12.316Z,3.30
2023-01-03T22:08:44.871Z,3.20
2023-01-03T22:11:18.063Z,3.10
2023-01-03T22:13:50.867Z,3.10
2023-01-03T22:16:26.733Z,3.00
2023-01-03T22:18:59.260Z,3.00
2023-01-03T22:21:33.932Z,3.00
2023-01-03T22:24:07.013Z,2.90
2023-01-03T22:26:39.794Z,2.80
2023-01-03T22:29:12.607Z,2.80
2023-01-03T22:31:46.880Z,2.70
2023-01-03T22:34:19.562Z,2.60
2023-01-03T22:36:52.410Z,2.60
2023-01-03T22:39:25.227Z,2.50
2023-01-03T22:41:58.099Z,2.50
2023-01-03T22:44:30.584Z,2.50
2023-01-03T22:47:04.605Z,2.50
2023-01-03T22:49:37.616Z,2.40
2023-01-03T22:52:10.391Z,2.40
2023-01-03T22:54:43.020Z,2.40
2023-01-03T22:57:16.177Z,2.30
2023-01-03T22:59:48.669Z,2.30
2023-01-03T23:02:28.094Z,2.30
2023-01-03T23:05:01.629Z,2.30
2023-01-03T23:07:34.411Z,2.20
2023-01-03T23:10:07.629Z,2.30
2023-01-03T23:12:58.472Z,2.20
2023-01-03T23:15:31.971Z,2.10
2023-01-03T23:18:04.760Z,2.00
2023-01-03T23:20:48.837Z,1.90
2023-01-03T23:23:21.657Z,1.90
2023-01-03T23:25:54.110Z,1.80
2023-01-03T23:28:27.099Z,1.80
2023-01-03T23:31:02.677Z,1.80
2023-01-03T23:33:35.660Z,1.80
2023-01-03T23:36:10.837Z,1.80
2023-01-03T23:38:43.638Z,1.70
2023-01-03T23:41:17.372Z,1.80
2023-01-03T23:43:50.691Z,1.80
2023-01-03T23:46:24.154Z,1.80
2023-01-03T23:48:58.017Z,1.70
2023-01-03T23:51:30.527Z,1.70
2023-01-03T23:54:03.835Z,1.70
2023-01-03T23:56:37.067Z,1.60
2023-01-03T23:59:09.817Z,1.60
